sensor_id;sensor_type;location;lat;lon;timestamp;P1;durP1;ratioP1;P2;durP2;ratioP2
22359;SDS011;11347;52.030;4.690;2022-07-25T00:00:25;4.33;;;2.67;;
22359;SDS011;11347;52.030;4.690;2022-07-25T00:02:51;4.37;;;3.03;;
22359;SDS011;11347;52.030;4.690;2022-07-25T00:05:16;6.57;;;3.10;;
22359;SDS011;11347;52.030;4.690;2022-07-25T00:07:42;4.27;;;2.90;;
22359;SDS011;11347;52.030;4.690;2022-07-25T00:10:07;4.60;;;3.00;;
22359;SDS011;11347;52.030;4.690;2022-07-25T00:12:33;4.03;;;2.73;;
22359;SDS011;11347;52.030;4.690;2022-07-25T00:14:59;3.60;;;2.73;;
22359;SDS011;11347;52.030;4.690;2022-07-25T00:17:25;4.23;;;2.57;;
22359;SDS011;11347;52.030;4.690;2022-07-25T00:19:50;3.40;;;2.73;;
22359;SDS011;11347;52.030;4.690;2022-07-25T00:22:16;3.30;;;2.80;;
22359;SDS011;11347;52.030;4.690;2022-07-25T00:24:41;5.83;;;3.13;;
22359;SDS011;11347;52.030;4.690;2022-07-25T00:27:07;4.37;;;2.60;;
22359;SDS011;11347;52.030;4.690;2022-07-25T00:29:33;5.27;;;2.80;;
22359;SDS011;11347;52.030;4.690;2022-07-25T00:31:58;5.03;;;3.00;;
22359;SDS011;11347;52.030;4.690;2022-07-25T00:34:24;4.20;;;3.10;;
22359;SDS011;11347;52.030;4.690;2022-07-25T00:36:49;4.53;;;3.10;;
22359;SDS011;11347;52.030;4.690;2022-07-25T00:39:15;4.43;;;2.77;;
22359;SDS011;11347;52.030;4.690;2022-07-25T00:41:40;5.13;;;3.33;;
22359;SDS011;11347;52.030;4.690;2022-07-25T00:44:08;4.20;;;3.20;;
22359;SDS011;11347;52.030;4.690;2022-07-25T00:46:36;4.70;;;2.83;;
22359;SDS011;11347;52.030;4.690;2022-07-25T00:49:02;4.60;;;3.20;;
22359;SDS011;11347;52.030;4.690;2022-07-25T00:51:28;3.80;;;2.83;;
22359;SDS011;11347;52.030;4.690;2022-07-25T00:53:54;5.63;;;3.10;;
22359;SDS011;11347;52.030;4.690;2022-07-25T00:56:21;8.70;;;3.17;;
22359;SDS011;11347;52.030;4.690;2022-07-25T00:58:46;5.27;;;3.10;;
22359;SDS011;11347;52.030;4.690;2022-07-25T01:01:12;6.73;;;3.03;;
22359;SDS011;11347;52.030;4.690;2022-07-25T01:03:38;5.30;;;2.80;;
22359;SDS011;11347;52.030;4.690;2022-07-25T01:06:04;4.47;;;3.10;;
22359;SDS011;11347;52.030;4.690;2022-07-25T01:08:29;5.43;;;3.40;;
22359;SDS011;11347;52.030;4.690;2022-07-25T01:10:56;6.47;;;3.13;;
22359;SDS011;11347;52.030;4.690;2022-07-25T01:13:21;3.83;;;3.00;;
22359;SDS011;11347;52.030;4.690;2022-07-25T01:15:47;3.90;;;2.87;;
22359;SDS011;11347;52.030;4.690;2022-07-25T01:18:12;4.30;;;3.07;;
22359;SDS011;11347;52.030;4.690;2022-07-25T01:20:38;5.23;;;3.10;;
22359;SDS011;11347;52.030;4.690;2022-07-25T01:23:04;4.80;;;3.20;;
22359;SDS011;11347;52.030;4.690;2022-07-25T01:25:29;3.53;;;2.80;;
22359;SDS011;11347;52.030;4.690;2022-07-25T01:27:55;6.03;;;3.00;;
22359;SDS011;11347;52.030;4.690;2022-07-25T01:30:22;4.43;;;3.00;;
22359;SDS011;11347;52.030;4.690;2022-07-25T01:32:48;5.90;;;3.00;;
22359;SDS011;11347;52.030;4.690;2022-07-25T01:35:14;3.40;;;3.00;;
22359;SDS011;11347;52.030;4.690;2022-07-25T01:37:40;4.77;;;2.77;;
22359;SDS011;11347;52.030;4.690;2022-07-25T01:40:06;3.63;;;2.80;;
22359;SDS011;11347;52.030;4.690;2022-07-25T01:42:32;3.80;;;2.80;;
22359;SDS011;11347;52.030;4.690;2022-07-25T01:44:58;4.23;;;3.10;;
22359;SDS011;11347;52.030;4.690;2022-07-25T01:47:24;5.23;;;3.30;;
22359;SDS011;11347;52.030;4.690;2022-07-25T01:49:50;4.27;;;3.00;;
22359;SDS011;11347;52.030;4.690;2022-07-25T01:52:15;4.87;;;3.07;;
22359;SDS011;11347;52.030;4.690;2022-07-25T01:54:41;5.40;;;3.03;;
22359;SDS011;11347;52.030;4.690;2022-07-25T01:57:07;6.60;;;3.00;;
22359;SDS011;11347;52.030;4.690;2022-07-25T01:59:36;3.73;;;2.73;;
22359;SDS011;11347;52.030;4.690;2022-07-25T02:02:04;3.60;;;2.73;;
22359;SDS011;11347;52.030;4.690;2022-07-25T02:04:30;6.77;;;2.90;;
22359;SDS011;11347;52.030;4.690;2022-07-25T02:06:56;6.57;;;3.20;;
22359;SDS011;11347;52.030;4.690;2022-07-25T02:09:21;4.53;;;3.20;;
22359;SDS011;11347;52.030;4.690;2022-07-25T02:11:47;5.93;;;3.07;;
22359;SDS011;11347;52.030;4.690;2022-07-25T02:14:13;4.67;;;3.00;;
22359;SDS011;11347;52.030;4.690;2022-07-25T02:16:38;4.17;;;2.80;;
22359;SDS011;11347;52.030;4.690;2022-07-25T02:19:04;4.67;;;2.77;;
22359;SDS011;11347;52.030;4.690;2022-07-25T02:21:29;5.23;;;2.90;;
22359;SDS011;11347;52.030;4.690;2022-07-25T02:23:55;3.73;;;2.90;;
22359;SDS011;11347;52.030;4.690;2022-07-25T02:26:21;5.10;;;3.30;;
22359;SDS011;11347;52.030;4.690;2022-07-25T02:28:48;5.53;;;3.20;;
22359;SDS011;11347;52.030;4.690;2022-07-25T02:31:14;3.83;;;2.77;;
22359;SDS011;11347;52.030;4.690;2022-07-25T02:33:40;4.20;;;3.20;;
22359;SDS011;11347;52.030;4.690;2022-07-25T02:36:05;4.27;;;3.03;;
22359;SDS011;11347;52.030;4.690;2022-07-25T02:38:32;4.80;;;3.30;;
22359;SDS011;11347;52.030;4.690;2022-07-25T02:40:57;3.97;;;2.90;;
22359;SDS011;11347;52.030;4.690;2022-07-25T02:43:23;4.57;;;2.83;;
22359;SDS011;11347;52.030;4.690;2022-07-25T02:45:48;3.70;;;3.03;;
22359;SDS011;11347;52.030;4.690;2022-07-25T02:48:14;3.23;;;2.70;;
22359;SDS011;11347;52.030;4.690;2022-07-25T02:50:40;4.17;;;2.90;;
22359;SDS011;11347;52.030;4.690;2022-07-25T02:53:06;3.53;;;2.70;;
22359;SDS011;11347;52.030;4.690;2022-07-25T02:55:31;3.77;;;2.93;;
22359;SDS011;11347;52.030;4.690;2022-07-25T02:57:57;5.03;;;2.80;;
22359;SDS011;11347;52.030;4.690;2022-07-25T03:00:22;4.27;;;2.80;;
22359;SDS011;11347;52.030;4.690;2022-07-25T03:02:48;6.23;;;2.80;;
22359;SDS011;11347;52.030;4.690;2022-07-25T03:05:14;4.13;;;3.20;;
22359;SDS011;11347;52.030;4.690;2022-07-25T03:07:40;4.77;;;3.20;;
22359;SDS011;11347;52.030;4.690;2022-07-25T03:10:08;3.83;;;3.27;;
22359;SDS011;11347;52.030;4.690;2022-07-25T03:12:35;3.77;;;3.10;;
22359;SDS011;11347;52.030;4.690;2022-07-25T03:15:01;4.63;;;3.10;;
22359;SDS011;11347;52.030;4.690;2022-07-25T03:17:27;4.23;;;3.20;;
22359;SDS011;11347;52.030;4.690;2022-07-25T03:19:54;5.23;;;3.13;;
22359;SDS011;11347;52.030;4.690;2022-07-25T03:22:20;5.03;;;3.33;;
22359;SDS011;11347;52.030;4.690;2022-07-25T03:24:46;3.63;;;2.93;;
22359;SDS011;11347;52.030;4.690;2022-07-25T03:27:11;5.97;;;3.37;;
22359;SDS011;11347;52.030;4.690;2022-07-25T03:29:37;4.77;;;3.47;;
22359;SDS011;11347;52.030;4.690;2022-07-25T03:32:03;4.90;;;3.03;;
22359;SDS011;11347;52.030;4.690;2022-07-25T03:34:29;4.97;;;3.30;;
22359;SDS011;11347;52.030;4.690;2022-07-25T03:36:55;8.83;;;3.10;;
22359;SDS011;11347;52.030;4.690;2022-07-25T03:39:21;5.50;;;3.17;;
22359;SDS011;11347;52.030;4.690;2022-07-25T03:41:48;4.90;;;3.17;;
22359;SDS011;11347;52.030;4.690;2022-07-25T03:44:14;4.27;;;3.27;;
22359;SDS011;11347;52.030;4.690;2022-07-25T03:46:39;7.43;;;3.37;;
22359;SDS011;11347;52.030;4.690;2022-07-25T03:49:05;4.43;;;3.20;;
22359;SDS011;11347;52.030;4.690;2022-07-25T03:51:30;4.43;;;3.17;;
22359;SDS011;11347;52.030;4.690;2022-07-25T03:53:56;5.80;;;3.13;;
22359;SDS011;11347;52.030;4.690;2022-07-25T03:58:54;6.43;;;3.10;;
22359;SDS011;11347;52.030;4.690;2022-07-25T04:01:19;4.97;;;3.37;;
22359;SDS011;11347;52.030;4.690;2022-07-25T04:03:45;4.97;;;3.23;;
22359;SDS011;11347;52.030;4.690;2022-07-25T04:06:11;5.50;;;3.30;;
22359;SDS011;11347;52.030;4.690;2022-07-25T04:08:36;5.90;;;3.80;;
22359;SDS011;11347;52.030;4.690;2022-07-25T04:11:02;4.73;;;3.47;;
22359;SDS011;11347;52.030;4.690;2022-07-25T04:13:27;4.17;;;3.30;;
22359;SDS011;11347;52.030;4.690;2022-07-25T04:15:53;4.90;;;3.20;;
22359;SDS011;11347;52.030;4.690;2022-07-25T04:18:19;4.43;;;3.30;;
22359;SDS011;11347;52.030;4.690;2022-07-25T04:20:45;4.57;;;3.33;;
22359;SDS011;11347;52.030;4.690;2022-07-25T04:23:10;6.50;;;3.50;;
22359;SDS011;11347;52.030;4.690;2022-07-25T04:25:36;5.30;;;3.53;;
22359;SDS011;11347;52.030;4.690;2022-07-25T04:28:01;5.67;;;3.20;;
22359;SDS011;11347;52.030;4.690;2022-07-25T04:30:27;4.40;;;3.17;;
22359;SDS011;11347;52.030;4.690;2022-07-25T04:32:52;4.77;;;3.57;;
22359;SDS011;11347;52.030;4.690;2022-07-25T04:35:18;5.73;;;2.90;;
22359;SDS011;11347;52.030;4.690;2022-07-25T04:37:44;4.77;;;3.20;;
22359;SDS011;11347;52.030;4.690;2022-07-25T04:40:09;4.80;;;2.87;;
22359;SDS011;11347;52.030;4.690;2022-07-25T04:42:35;4.93;;;3.23;;
22359;SDS011;11347;52.030;4.690;2022-07-25T04:45:01;4.13;;;2.90;;
22359;SDS011;11347;52.030;4.690;2022-07-25T04:47:27;4.13;;;3.00;;
22359;SDS011;11347;52.030;4.690;2022-07-25T04:49:53;4.40;;;3.00;;
22359;SDS011;11347;52.030;4.690;2022-07-25T04:52:19;4.57;;;2.90;;
22359;SDS011;11347;52.030;4.690;2022-07-25T04:54:45;4.50;;;2.50;;
22359;SDS011;11347;52.030;4.690;2022-07-25T04:57:10;3.57;;;2.57;;
22359;SDS011;11347;52.030;4.690;2022-07-25T04:59:36;4.83;;;2.60;;
22359;SDS011;11347;52.030;4.690;2022-07-25T05:02:01;4.60;;;2.97;;
22359;SDS011;11347;52.030;4.690;2022-07-25T05:04:27;4.30;;;2.30;;
22359;SDS011;11347;52.030;4.690;2022-07-25T05:06:53;4.40;;;2.50;;
22359;SDS011;11347;52.030;4.690;2022-07-25T05:09:18;3.50;;;2.20;;
22359;SDS011;11347;52.030;4.690;2022-07-25T05:11:44;3.13;;;2.10;;
22359;SDS011;11347;52.030;4.690;2022-07-25T05:14:09;2.40;;;1.80;;
22359;SDS011;11347;52.030;4.690;2022-07-25T05:16:35;2.83;;;2.07;;
22359;SDS011;11347;52.030;4.690;2022-07-25T05:19:00;3.23;;;2.17;;
22359;SDS011;11347;52.030;4.690;2022-07-25T05:21:26;2.83;;;1.80;;
22359;SDS011;11347;52.030;4.690;2022-07-25T05:23:52;3.03;;;1.80;;
22359;SDS011;11347;52.030;4.690;2022-07-25T05:26:17;2.27;;;1.60;;
22359;SDS011;11347;52.030;4.690;2022-07-25T05:28:43;3.07;;;1.60;;
22359;SDS011;11347;52.030;4.690;2022-07-25T05:31:08;3.60;;;1.97;;
22359;SDS011;11347;52.030;4.690;2022-07-25T05:33:34;3.13;;;1.70;;
22359;SDS011;11347;52.030;4.690;2022-07-25T05:36:00;5.27;;;1.73;;
22359;SDS011;11347;52.030;4.690;2022-07-25T05:38:27;2.60;;;1.70;;
22359;SDS011;11347;52.030;4.690;2022-07-25T05:40:53;2.53;;;1.53;;
22359;SDS011;11347;52.030;4.690;2022-07-25T05:43:18;3.23;;;1.60;;
22359;SDS011;11347;52.030;4.690;2022-07-25T05:45:44;3.27;;;1.60;;
22359;SDS011;11347;52.030;4.690;2022-07-25T05:48:11;3.37;;;1.60;;
22359;SDS011;11347;52.030;4.690;2022-07-25T05:50:37;3.13;;;1.40;;
22359;SDS011;11347;52.030;4.690;2022-07-25T05:53:03;3.30;;;1.60;;
22359;SDS011;11347;52.030;4.690;2022-07-25T05:55:28;3.23;;;1.53;;
22359;SDS011;11347;52.030;4.690;2022-07-25T05:57:54;3.63;;;1.67;;
22359;SDS011;11347;52.030;4.690;2022-07-25T06:00:19;4.03;;;1.53;;
22359;SDS011;11347;52.030;4.690;2022-07-25T06:02:45;2.90;;;1.47;;
22359;SDS011;11347;52.030;4.690;2022-07-25T06:05:11;5.97;;;1.50;;
22359;SDS011;11347;52.030;4.690;2022-07-25T06:07:36;1.90;;;1.20;;
22359;SDS011;11347;52.030;4.690;2022-07-25T06:10:02;2.00;;;1.40;;
22359;SDS011;11347;52.030;4.690;2022-07-25T06:12:28;3.20;;;1.70;;
22359;SDS011;11347;52.030;4.690;2022-07-25T06:14:54;3.27;;;1.43;;
22359;SDS011;11347;52.030;4.690;2022-07-25T06:17:19;2.90;;;1.13;;
22359;SDS011;11347;52.030;4.690;2022-07-25T06:19:45;5.77;;;1.43;;
22359;SDS011;11347;52.030;4.690;2022-07-25T06:22:10;3.23;;;1.20;;
22359;SDS011;11347;52.030;4.690;2022-07-25T06:24:37;3.23;;;1.30;;
22359;SDS011;11347;52.030;4.690;2022-07-25T06:27:03;4.67;;;1.47;;
22359;SDS011;11347;52.030;4.690;2022-07-25T06:29:29;3.77;;;1.07;;
22359;SDS011;11347;52.030;4.690;2022-07-25T06:31:54;4.27;;;1.27;;
22359;SDS011;11347;52.030;4.690;2022-07-25T06:34:20;4.70;;;1.37;;
22359;SDS011;11347;52.030;4.690;2022-07-25T06:36:45;4.10;;;1.30;;
22359;SDS011;11347;52.030;4.690;2022-07-25T06:39:11;3.73;;;1.63;;
22359;SDS011;11347;52.030;4.690;2022-07-25T06:41:36;5.03;;;1.30;;
22359;SDS011;11347;52.030;4.690;2022-07-25T06:44:02;3.07;;;1.10;;
22359;SDS011;11347;52.030;4.690;2022-07-25T06:46:27;4.30;;;1.10;;
22359;SDS011;11347;52.030;4.690;2022-07-25T06:48:55;3.73;;;1.20;;
22359;SDS011;11347;52.030;4.690;2022-07-25T06:51:22;2.60;;;1.07;;
22359;SDS011;11347;52.030;4.690;2022-07-25T06:53:48;3.60;;;1.30;;
22359;SDS011;11347;52.030;4.690;2022-07-25T06:56:14;4.83;;;1.30;;
22359;SDS011;11347;52.030;4.690;2022-07-25T06:58:39;3.57;;;1.20;;
22359;SDS011;11347;52.030;4.690;2022-07-25T07:01:05;3.13;;;1.20;;
22359;SDS011;11347;52.030;4.690;2022-07-25T07:03:31;3.20;;;1.20;;
22359;SDS011;11347;52.030;4.690;2022-07-25T07:06:01;2.63;;;1.33;;
22359;SDS011;11347;52.030;4.690;2022-07-25T07:08:30;3.77;;;1.23;;
22359;SDS011;11347;52.030;4.690;2022-07-25T07:10:55;4.80;;;1.30;;
22359;SDS011;11347;52.030;4.690;2022-07-25T07:13:21;3.53;;;1.27;;
22359;SDS011;11347;52.030;4.690;2022-07-25T07:15:48;5.27;;;1.30;;
22359;SDS011;11347;52.030;4.690;2022-07-25T07:18:15;3.77;;;1.10;;
22359;SDS011;11347;52.030;4.690;2022-07-25T07:20:41;7.60;;;1.50;;
22359;SDS011;11347;52.030;4.690;2022-07-25T07:23:07;4.20;;;1.07;;
22359;SDS011;11347;52.030;4.690;2022-07-25T07:25:33;4.40;;;1.20;;
22359;SDS011;11347;52.030;4.690;2022-07-25T07:27:58;4.43;;;1.07;;
22359;SDS011;11347;52.030;4.690;2022-07-25T07:30:24;3.93;;;1.20;;
22359;SDS011;11347;52.030;4.690;2022-07-25T07:32:50;3.77;;;1.07;;
22359;SDS011;11347;52.030;4.690;2022-07-25T07:35:16;3.53;;;1.20;;
22359;SDS011;11347;52.030;4.690;2022-07-25T07:37:43;5.17;;;1.10;;
22359;SDS011;11347;52.030;4.690;2022-07-25T07:40:10;6.27;;;1.37;;
22359;SDS011;11347;52.030;4.690;2022-07-25T07:42:41;4.77;;;1.20;;
22359;SDS011;11347;52.030;4.690;2022-07-25T07:45:09;4.43;;;1.20;;
22359;SDS011;11347;52.030;4.690;2022-07-25T07:47:36;4.90;;;1.30;;
22359;SDS011;11347;52.030;4.690;2022-07-25T07:50:01;4.10;;;1.20;;
22359;SDS011;11347;52.030;4.690;2022-07-25T07:52:27;4.17;;;1.17;;
22359;SDS011;11347;52.030;4.690;2022-07-25T07:54:53;5.13;;;1.30;;
22359;SDS011;11347;52.030;4.690;2022-07-25T07:57:37;5.27;;;1.40;;
22359;SDS011;11347;52.030;4.690;2022-07-25T08:00:02;8.07;;;1.10;;
22359;SDS011;11347;52.030;4.690;2022-07-25T08:02:29;8.23;;;1.37;;
22359;SDS011;11347;52.030;4.690;2022-07-25T08:04:54;6.43;;;1.50;;
22359;SDS011;11347;52.030;4.690;2022-07-25T08:07:20;7.33;;;1.30;;
22359;SDS011;11347;52.030;4.690;2022-07-25T08:09:45;4.57;;;1.20;;
22359;SDS011;11347;52.030;4.690;2022-07-25T08:12:11;4.80;;;1.20;;
22359;SDS011;11347;52.030;4.690;2022-07-25T08:14:36;3.27;;;1.30;;
22359;SDS011;11347;52.030;4.690;2022-07-25T08:17:02;4.67;;;1.40;;
22359;SDS011;11347;52.030;4.690;2022-07-25T08:19:28;3.93;;;1.07;;
22359;SDS011;11347;52.030;4.690;2022-07-25T08:21:53;4.30;;;1.30;;
22359;SDS011;11347;52.030;4.690;2022-07-25T08:24:19;3.97;;;1.10;;
22359;SDS011;11347;52.030;4.690;2022-07-25T08:26:44;3.73;;;1.40;;
22359;SDS011;11347;52.030;4.690;2022-07-25T08:29:10;4.10;;;1.13;;
22359;SDS011;11347;52.030;4.690;2022-07-25T08:31:35;5.20;;;1.13;;
22359;SDS011;11347;52.030;4.690;2022-07-25T08:34:01;3.53;;;1.20;;
22359;SDS011;11347;52.030;4.690;2022-07-25T08:36:27;4.33;;;1.43;;
22359;SDS011;11347;52.030;4.690;2022-07-25T08:38:53;3.80;;;1.13;;
22359;SDS011;11347;52.030;4.690;2022-07-25T08:41:18;6.33;;;1.50;;
22359;SDS011;11347;52.030;4.690;2022-07-25T08:43:44;6.10;;;1.27;;
22359;SDS011;11347;52.030;4.690;2022-07-25T08:46:11;5.20;;;1.30;;
22359;SDS011;11347;52.030;4.690;2022-07-25T08:48:39;5.50;;;1.30;;
22359;SDS011;11347;52.030;4.690;2022-07-25T08:51:06;4.50;;;1.33;;
22359;SDS011;11347;52.030;4.690;2022-07-25T08:53:32;5.60;;;1.40;;
22359;SDS011;11347;52.030;4.690;2022-07-25T08:55:59;5.30;;;1.03;;
22359;SDS011;11347;52.030;4.690;2022-07-25T08:58:25;4.63;;;1.47;;
22359;SDS011;11347;52.030;4.690;2022-07-25T09:00:51;7.50;;;1.40;;
22359;SDS011;11347;52.030;4.690;2022-07-25T09:03:16;5.47;;;1.30;;
22359;SDS011;11347;52.030;4.690;2022-07-25T09:05:42;5.00;;;1.23;;
22359;SDS011;11347;52.030;4.690;2022-07-25T09:08:11;2.40;;;1.20;;
22359;SDS011;11347;52.030;4.690;2022-07-25T09:10:39;5.73;;;1.20;;
22359;SDS011;11347;52.030;4.690;2022-07-25T09:13:10;5.80;;;1.83;;
22359;SDS011;11347;52.030;4.690;2022-07-25T09:15:49;3.83;;;1.17;;
22359;SDS011;11347;52.030;4.690;2022-07-25T09:18:24;3.53;;;1.20;;
22359;SDS011;11347;52.030;4.690;2022-07-25T09:20:52;4.90;;;1.43;;
22359;SDS011;11347;52.030;4.690;2022-07-25T09:26:02;3.77;;;1.20;;
22359;SDS011;11347;52.030;4.690;2022-07-25T09:28:29;3.20;;;0.80;;
22359;SDS011;11347;52.030;4.690;2022-07-25T09:30:56;2.73;;;1.10;;
22359;SDS011;11347;52.030;4.690;2022-07-25T09:33:23;4.43;;;1.30;;
22359;SDS011;11347;52.030;4.690;2022-07-25T09:35:50;4.30;;;1.67;;
22359;SDS011;11347;52.030;4.690;2022-07-25T09:38:17;3.47;;;1.10;;
22359;SDS011;11347;52.030;4.690;2022-07-25T09:40:57;5.67;;;1.27;;
22359;SDS011;11347;52.030;4.690;2022-07-25T09:43:38;4.83;;;1.27;;
22359;SDS011;11347;52.030;4.690;2022-07-25T09:46:07;5.37;;;1.50;;
22359;SDS011;11347;52.030;4.690;2022-07-25T09:48:34;4.13;;;1.30;;
22359;SDS011;11347;52.030;4.690;2022-07-25T09:51:01;4.90;;;1.27;;
22359;SDS011;11347;52.030;4.690;2022-07-25T09:53:28;6.73;;;1.63;;
22359;SDS011;11347;52.030;4.690;2022-07-25T09:55:53;7.93;;;1.80;;
22359;SDS011;11347;52.030;4.690;2022-07-25T09:58:21;5.47;;;1.67;;
22359;SDS011;11347;52.030;4.690;2022-07-25T10:00:47;5.87;;;1.63;;
22359;SDS011;11347;52.030;4.690;2022-07-25T10:08:25;7.60;;;1.93;;
22359;SDS011;11347;52.030;4.690;2022-07-25T10:10:52;5.53;;;1.47;;
22359;SDS011;11347;52.030;4.690;2022-07-25T10:13:27;7.80;;;1.83;;
22359;SDS011;11347;52.030;4.690;2022-07-25T10:15:54;7.90;;;1.77;;
22359;SDS011;11347;52.030;4.690;2022-07-25T10:18:21;5.17;;;1.57;;
22359;SDS011;11347;52.030;4.690;2022-07-25T10:20:49;5.83;;;1.77;;
22359;SDS011;11347;52.030;4.690;2022-07-25T10:23:23;6.13;;;1.70;;
22359;SDS011;11347;52.030;4.690;2022-07-25T10:26:07;7.23;;;1.80;;
22359;SDS011;11347;52.030;4.690;2022-07-25T10:34:02;7.57;;;1.90;;
22359;SDS011;11347;52.030;4.690;2022-07-25T10:36:48;7.23;;;1.70;;
22359;SDS011;11347;52.030;4.690;2022-07-25T10:39:18;7.20;;;1.70;;
22359;SDS011;11347;52.030;4.690;2022-07-25T10:41:52;6.80;;;1.93;;
22359;SDS011;11347;52.030;4.690;2022-07-25T10:44:19;8.90;;;2.07;;
22359;SDS011;11347;52.030;4.690;2022-07-25T10:46:45;6.87;;;2.20;;
22359;SDS011;11347;52.030;4.690;2022-07-25T10:49:16;7.30;;;2.10;;
22359;SDS011;11347;52.030;4.690;2022-07-25T10:51:50;9.57;;;2.00;;
22359;SDS011;11347;52.030;4.690;2022-07-25T10:54:21;7.83;;;2.10;;
22359;SDS011;11347;52.030;4.690;2022-07-25T10:56:56;5.73;;;1.70;;
22359;SDS011;11347;52.030;4.690;2022-07-25T11:01:59;6.27;;;1.70;;
22359;SDS011;11347;52.030;4.690;2022-07-25T11:04:25;7.80;;;1.80;;
22359;SDS011;11347;52.030;4.690;2022-07-25T11:06:52;6.40;;;2.20;;
22359;SDS011;11347;52.030;4.690;2022-07-25T11:09:21;6.90;;;2.00;;
22359;SDS011;11347;52.030;4.690;2022-07-25T11:11:49;6.03;;;1.90;;
22359;SDS011;11347;52.030;4.690;2022-07-25T11:14:18;6.60;;;1.73;;
22359;SDS011;11347;52.030;4.690;2022-07-25T11:16:52;6.27;;;1.90;;
22359;SDS011;11347;52.030;4.690;2022-07-25T11:19:22;8.10;;;1.77;;
22359;SDS011;11347;52.030;4.690;2022-07-25T11:21:53;5.23;;;1.87;;
22359;SDS011;11347;52.030;4.690;2022-07-25T11:24:21;6.53;;;1.57;;
22359;SDS011;11347;52.030;4.690;2022-07-25T11:26:57;8.07;;;1.90;;
22359;SDS011;11347;52.030;4.690;2022-07-25T11:29:23;6.83;;;2.17;;
22359;SDS011;11347;52.030;4.690;2022-07-25T11:34:24;7.73;;;1.90;;
22359;SDS011;11347;52.030;4.690;2022-07-25T11:36:54;7.47;;;1.60;;
22359;SDS011;11347;52.030;4.690;2022-07-25T11:39:27;6.00;;;1.83;;
22359;SDS011;11347;52.030;4.690;2022-07-25T11:41:58;4.90;;;1.73;;
22359;SDS011;11347;52.030;4.690;2022-07-25T11:44:35;6.33;;;1.80;;
22359;SDS011;11347;52.030;4.690;2022-07-25T11:47:06;7.37;;;2.00;;
22359;SDS011;11347;52.030;4.690;2022-07-25T11:49:51;5.30;;;1.60;;
22359;SDS011;11347;52.030;4.690;2022-07-25T11:52:22;8.00;;;1.83;;
22359;SDS011;11347;52.030;4.690;2022-07-25T11:54:54;4.70;;;1.57;;
22359;SDS011;11347;52.030;4.690;2022-07-25T11:57:31;7.97;;;1.90;;
22359;SDS011;11347;52.030;4.690;2022-07-25T11:59:59;7.23;;;1.67;;
22359;SDS011;11347;52.030;4.690;2022-07-25T12:02:31;6.77;;;1.60;;
22359;SDS011;11347;52.030;4.690;2022-07-25T12:05:02;8.73;;;1.77;;
22359;SDS011;11347;52.030;4.690;2022-07-25T12:07:42;8.07;;;1.37;;
22359;SDS011;11347;52.030;4.690;2022-07-25T12:10:14;8.27;;;1.53;;
22359;SDS011;11347;52.030;4.690;2022-07-25T12:12:44;9.13;;;1.70;;
22359;SDS011;11347;52.030;4.690;2022-07-25T12:15:15;8.13;;;1.43;;
22359;SDS011;11347;52.030;4.690;2022-07-25T12:17:44;6.20;;;1.60;;
22359;SDS011;11347;52.030;4.690;2022-07-25T12:20:30;10.77;;;1.40;;
22359;SDS011;11347;52.030;4.690;2022-07-25T12:22:59;3.30;;;1.07;;
22359;SDS011;11347;52.030;4.690;2022-07-25T12:25:29;6.33;;;1.70;;
22359;SDS011;11347;52.030;4.690;2022-07-25T12:27:56;6.17;;;1.53;;
22359;SDS011;11347;52.030;4.690;2022-07-25T12:30:22;8.97;;;1.50;;
22359;SDS011;11347;52.030;4.690;2022-07-25T12:32:48;17.40;;;2.63;;
22359;SDS011;11347;52.030;4.690;2022-07-25T12:35:14;7.63;;;1.87;;
22359;SDS011;11347;52.030;4.690;2022-07-25T12:37:40;6.60;;;1.80;;
22359;SDS011;11347;52.030;4.690;2022-07-25T12:40:07;11.30;;;1.90;;
22359;SDS011;11347;52.030;4.690;2022-07-25T12:42:33;14.83;;;2.17;;
22359;SDS011;11347;52.030;4.690;2022-07-25T12:44:59;10.60;;;2.63;;
22359;SDS011;11347;52.030;4.690;2022-07-25T12:47:25;12.87;;;2.00;;
22359;SDS011;11347;52.030;4.690;2022-07-25T12:49:51;7.83;;;1.60;;
22359;SDS011;11347;52.030;4.690;2022-07-25T12:52:17;6.13;;;1.77;;
22359;SDS011;11347;52.030;4.690;2022-07-25T12:54:43;4.30;;;1.43;;
22359;SDS011;11347;52.030;4.690;2022-07-25T12:57:09;6.60;;;1.97;;
22359;SDS011;11347;52.030;4.690;2022-07-25T12:59:35;8.00;;;1.70;;
22359;SDS011;11347;52.030;4.690;2022-07-25T13:02:01;6.53;;;1.77;;
22359;SDS011;11347;52.030;4.690;2022-07-25T13:04:28;9.17;;;1.50;;
22359;SDS011;11347;52.030;4.690;2022-07-25T13:06:53;6.13;;;1.47;;
22359;SDS011;11347;52.030;4.690;2022-07-25T13:09:19;5.97;;;1.50;;
22359;SDS011;11347;52.030;4.690;2022-07-25T13:11:45;6.57;;;1.70;;
22359;SDS011;11347;52.030;4.690;2022-07-25T13:14:10;7.07;;;1.60;;
22359;SDS011;11347;52.030;4.690;2022-07-25T13:16:36;10.97;;;1.70;;
22359;SDS011;11347;52.030;4.690;2022-07-25T13:19:03;6.53;;;1.87;;
22359;SDS011;11347;52.030;4.690;2022-07-25T13:21:29;5.93;;;1.67;;
22359;SDS011;11347;52.030;4.690;2022-07-25T13:23:55;6.43;;;1.43;;
22359;SDS011;11347;52.030;4.690;2022-07-25T13:26:21;7.30;;;1.40;;
22359;SDS011;11347;52.030;4.690;2022-07-25T13:28:47;7.13;;;1.40;;
22359;SDS011;11347;52.030;4.690;2022-07-25T13:31:13;5.83;;;1.20;;
22359;SDS011;11347;52.030;4.690;2022-07-25T13:33:38;5.30;;;1.53;;
22359;SDS011;11347;52.030;4.690;2022-07-25T13:36:04;5.83;;;1.70;;
22359;SDS011;11347;52.030;4.690;2022-07-25T13:38:30;5.90;;;1.20;;
22359;SDS011;11347;52.030;4.690;2022-07-25T13:40:58;6.87;;;1.90;;
22359;SDS011;11347;52.030;4.690;2022-07-25T13:43:26;5.77;;;1.37;;
22359;SDS011;11347;52.030;4.690;2022-07-25T13:45:52;5.27;;;1.30;;
22359;SDS011;11347;52.030;4.690;2022-07-25T13:48:17;5.43;;;1.63;;
22359;SDS011;11347;52.030;4.690;2022-07-25T13:50:43;4.37;;;1.30;;
22359;SDS011;11347;52.030;4.690;2022-07-25T13:53:09;4.97;;;1.50;;
22359;SDS011;11347;52.030;4.690;2022-07-25T13:55:34;6.30;;;1.37;;
22359;SDS011;11347;52.030;4.690;2022-07-25T13:58:00;11.07;;;1.20;;
22359;SDS011;11347;52.030;4.690;2022-07-25T14:00:25;5.27;;;0.90;;
22359;SDS011;11347;52.030;4.690;2022-07-25T14:02:51;7.07;;;1.30;;
22359;SDS011;11347;52.030;4.690;2022-07-25T14:05:17;4.63;;;1.20;;
22359;SDS011;11347;52.030;4.690;2022-07-25T14:07:43;3.73;;;1.20;;
22359;SDS011;11347;52.030;4.690;2022-07-25T14:10:08;7.87;;;1.43;;
22359;SDS011;11347;52.030;4.690;2022-07-25T14:12:35;5.47;;;1.37;;
22359;SDS011;11347;52.030;4.690;2022-07-25T14:15:03;4.80;;;1.00;;
22359;SDS011;11347;52.030;4.690;2022-07-25T14:17:30;5.43;;;1.07;;
22359;SDS011;11347;52.030;4.690;2022-07-25T14:19:56;7.37;;;1.27;;
22359;SDS011;11347;52.030;4.690;2022-07-25T14:22:22;3.63;;;0.97;;
22359;SDS011;11347;52.030;4.690;2022-07-25T14:24:47;3.20;;;0.90;;
22359;SDS011;11347;52.030;4.690;2022-07-25T14:27:13;4.60;;;1.10;;
22359;SDS011;11347;52.030;4.690;2022-07-25T14:29:39;5.77;;;1.07;;
22359;SDS011;11347;52.030;4.690;2022-07-25T14:32:04;3.83;;;0.90;;
22359;SDS011;11347;52.030;4.690;2022-07-25T14:34:31;4.47;;;0.93;;
22359;SDS011;11347;52.030;4.690;2022-07-25T14:37:01;3.73;;;1.10;;
22359;SDS011;11347;52.030;4.690;2022-07-25T14:39:29;4.80;;;1.10;;
22359;SDS011;11347;52.030;4.690;2022-07-25T14:41:54;4.20;;;1.00;;
22359;SDS011;11347;52.030;4.690;2022-07-25T14:44:21;3.13;;;0.73;;
22359;SDS011;11347;52.030;4.690;2022-07-25T14:46:46;3.60;;;0.80;;
22359;SDS011;11347;52.030;4.690;2022-07-25T14:49:13;5.33;;;0.97;;
22359;SDS011;11347;52.030;4.690;2022-07-25T14:51:40;2.60;;;1.03;;
22359;SDS011;11347;52.030;4.690;2022-07-25T14:54:09;2.77;;;1.03;;
22359;SDS011;11347;52.030;4.690;2022-07-25T14:56:34;4.60;;;1.00;;
22359;SDS011;11347;52.030;4.690;2022-07-25T14:59:01;5.97;;;0.93;;
22359;SDS011;11347;52.030;4.690;2022-07-25T15:01:28;5.13;;;1.23;;
22359;SDS011;11347;52.030;4.690;2022-07-25T15:03:53;4.93;;;1.00;;
22359;SDS011;11347;52.030;4.690;2022-07-25T15:06:22;4.80;;;1.00;;